createdAt,value
2019-04-30T00:01:15.220Z,33.50
2019-04-30T00:03:46.060Z,33.60
2019-04-30T00:06:13.046Z,33.40
2019-04-30T00:08:40.199Z,33.20
2019-04-30T00:11:10.751Z,33.30
2019-04-30T00:13:36.003Z,33.40
2019-04-30T00:16:05.209Z,33.50
2019-04-30T00:18:38.208Z,33.30
2019-04-30T00:21:01.092Z,33.30
2019-04-30T00:23:30.638Z,33.20
2019-04-30T00:25:58.384Z,33.10
2019-04-30T00:28:25.766Z,33.10
2019-04-30T00:30:56.258Z,33.10
2019-04-30T00:33:25.117Z,33.20
2019-04-30T00:35:56.462Z,33.10
2019-04-30T00:38:20.510Z,33.30
2019-04-30T00:40:47.593Z,33.20
2019-04-30T00:43:28.206Z,33.10
2019-04-30T00:45:55.417Z,33.20
2019-04-30T00:48:29.541Z,33.30
2019-04-30T00:50:51.151Z,33.30
2019-04-30T00:53:18.303Z,33.30
2019-04-30T00:55:48.401Z,33.40
2019-04-30T00:58:17.744Z,33.30
2019-04-30T01:00:45.812Z,33.30
2019-04-30T01:03:30.460Z,34.10
2019-04-30T01:05:57.417Z,33.30
2019-04-30T01:08:27.214Z,33.30
2019-04-30T01:10:55.633Z,33.30
2019-04-30T01:13:22.467Z,33.20
2019-04-30T01:15:52.480Z,33.30
2019-04-30T01:18:19.316Z,33.30
2019-04-30T01:20:46.202Z,33.30
2019-04-30T01:23:14.795Z,33.30
2019-04-30T01:25:43.207Z,33.20
2019-04-30T01:28:10.876Z,33.30
2019-04-30T01:30:39.409Z,33.30
2019-04-30T01:33:06.408Z,33.30
2019-04-30T01:35:33.992Z,33.20
2019-04-30T01:38:04.102Z,33.10
2019-04-30T01:40:30.211Z,33.00
2019-04-30T01:42:59.287Z,32.80
2019-04-30T01:45:31.388Z,33.00
2019-04-30T01:48:00.728Z,33.10
2019-04-30T01:50:24.980Z,33.10
2019-04-30T01:52:51.779Z,33.10
2019-04-30T01:55:20.883Z,33.20
2019-04-30T01:57:49.562Z,33.20
2019-04-30T02:00:19.562Z,33.10
2019-04-30T02:02:47.013Z,33.20
2019-04-30T02:05:13.826Z,33.30
2019-04-30T02:07:40.589Z,33.30
2019-04-30T02:10:08.746Z,33.30
2019-04-30T02:12:35.648Z,33.30
2019-04-30T02:15:03.049Z,33.10
2019-04-30T02:17:30.030Z,33.20
2019-04-30T02:19:59.348Z,33.20
2019-04-30T02:22:26.266Z,33.30
2019-04-30T02:24:53.792Z,33.20
2019-04-30T02:27:21.650Z,33.30
2019-04-30T02:29:49.570Z,33.20
2019-04-30T02:32:16.352Z,33.20
2019-04-30T02:34:44.942Z,33.30
2019-04-30T02:37:25.307Z,33.20
2019-04-30T02:39:51.986Z,33.00
2019-04-30T02:42:20.058Z,33.00
2019-04-30T02:44:50.432Z,33.10
2019-04-30T02:47:20.309Z,32.90
2019-04-30T02:49:50.045Z,32.90
2019-04-30T02:52:19.566Z,32.90
2019-04-30T02:54:49.900Z,32.90
2019-04-30T02:57:16.851Z,32.80
2019-04-30T03:00:02.918Z,32.80
2019-04-30T03:02:31.857Z,32.80
2019-04-30T03:05:00.207Z,32.80
2019-04-30T03:07:29.492Z,32.80
2019-04-30T03:09:59.569Z,32.80
2019-04-30T03:12:25.800Z,32.80
2019-04-30T03:14:53.852Z,32.80
2019-04-30T03:17:25.418Z,32.80
2019-04-30T03:20:03.089Z,32.90
2019-04-30T03:22:30.151Z,32.80
2019-04-30T03:24:59.732Z,32.90
2019-04-30T03:27:25.904Z,32.70
2019-04-30T03:29:52.844Z,32.80
2019-04-30T03:32:22.245Z,32.70
2019-04-30T03:34:51.563Z,32.50
2019-04-30T03:37:19.682Z,32.60
2019-04-30T03:39:45.531Z,32.70
2019-04-30T03:42:12.326Z,32.70
2019-04-30T03:44:40.044Z,32.60
2019-04-30T03:47:07.080Z,33.40
2019-04-30T03:49:33.745Z,32.70
2019-04-30T03:52:01.759Z,32.70
2019-04-30T03:54:29.254Z,32.60
2019-04-30T03:57:00.378Z,32.60
2019-04-30T03:59:26.706Z,32.50
2019-04-30T04:01:55.530Z,32.50
2019-04-30T04:04:36.145Z,32.50
2019-04-30T04:07:10.082Z,32.50
2019-04-30T04:09:49.701Z,32.50
2019-04-30T04:12:22.450Z,32.40
2019-04-30T04:14:50.973Z,32.30
2019-04-30T04:17:20.157Z,32.50
2019-04-30T04:19:49.980Z,32.40
2019-04-30T04:22:20.316Z,32.30
2019-04-30T04:24:46.505Z,32.20
2019-04-30T04:27:14.196Z,32.20
2019-04-30T04:29:41.088Z,32.50
2019-04-30T04:32:10.653Z,32.30
2019-04-30T04:34:39.892Z,32.30
2019-04-30T04:37:09.893Z,32.10
2019-04-30T04:39:35.385Z,32.10
2019-04-30T04:42:02.565Z,32.10
2019-04-30T04:44:29.513Z,32.20
2019-04-30T04:46:56.653Z,32.40
2019-04-30T04:49:23.379Z,32.30
2019-04-30T04:51:50.057Z,32.10
2019-04-30T04:54:16.949Z,31.90
2019-04-30T04:56:43.856Z,32.00
2019-04-30T04:59:10.532Z,32.10
2019-04-30T05:01:38.746Z,32.00
2019-04-30T05:04:05.746Z,32.00
2019-04-30T05:06:32.735Z,31.80
2019-04-30T05:09:01.640Z,31.70
2019-04-30T05:11:31.646Z,31.80
2019-04-30T05:13:58.946Z,31.80
2019-04-30T05:16:25.948Z,31.80
2019-04-30T05:18:53.025Z,31.60
2019-04-30T05:21:20.152Z,31.80
2019-04-30T05:23:47.004Z,31.70
2019-04-30T05:26:14.045Z,31.70
2019-04-30T05:28:41.608Z,31.70
2019-04-30T05:31:08.874Z,31.70
2019-04-30T05:33:36.146Z,31.80
2019-04-30T05:36:03.793Z,31.70
2019-04-30T05:38:31.435Z,31.80
2019-04-30T05:40:59.563Z,31.60
2019-04-30T05:43:26.635Z,31.80
2019-04-30T05:45:53.461Z,31.70
2019-04-30T05:48:20.593Z,31.80
2019-04-30T05:50:49.317Z,31.80
2019-04-30T05:53:16.097Z,31.80
2019-04-30T05:55:43.029Z,31.60
2019-04-30T05:58:10.078Z,31.70
2019-04-30T06:00:37.018Z,32.10
2019-04-30T06:03:04.072Z,31.60
2019-04-30T06:05:31.020Z,31.50
2019-04-30T06:07:59.196Z,31.60
2019-04-30T06:10:29.498Z,31.60
2019-04-30T06:12:59.441Z,31.60
2019-04-30T06:15:38.972Z,31.60
2019-04-30T06:18:12.901Z,31.60
2019-04-30T06:20:35.218Z,31.70
2019-04-30T06:23:02.385Z,31.70
2019-04-30T06:25:37.185Z,31.80
2019-04-30T06:27:59.305Z,31.50
2019-04-30T06:30:29.544Z,31.60
2019-04-30T06:32:56.610Z,31.40
2019-04-30T06:35:23.960Z,31.40
2019-04-30T06:37:51.009Z,31.40
2019-04-30T06:40:19.613Z,31.40
2019-04-30T06:42:47.162Z,31.40
2019-04-30T06:45:15.128Z,31.30
2019-04-30T06:47:42.141Z,31.50
2019-04-30T06:50:09.724Z,31.50
2019-04-30T06:52:38.868Z,31.30
2019-04-30T06:55:05.502Z,31.20
2019-04-30T06:57:32.493Z,31.30
2019-04-30T06:59:59.694Z,31.10
2019-04-30T07:02:27.024Z,31.20
2019-04-30T07:04:53.810Z,31.20
2019-04-30T07:07:23.227Z,31.00
2019-04-30T07:10:16.738Z,31.00
2019-04-30T07:12:44.234Z,30.90
2019-04-30T07:15:13.651Z,30.90
2019-04-30T07:17:40.696Z,31.00
2019-04-30T07:20:07.597Z,30.80
2019-04-30T07:22:40.086Z,30.70
2019-04-30T07:25:05.236Z,30.60
2019-04-30T07:27:32.483Z,30.50
2019-04-30T07:29:59.685Z,30.30
2019-04-30T07:32:28.816Z,30.20
2019-04-30T07:34:55.812Z,30.00
2019-04-30T07:37:24.645Z,29.90
2019-04-30T07:39:51.669Z,29.90
2019-04-30T07:42:19.231Z,29.90
2019-04-30T07:44:46.179Z,30.00
2019-04-30T07:47:13.161Z,30.70
2019-04-30T07:52:11.269Z,30.10
2019-04-30T07:54:39.612Z,30.40
2019-04-30T07:57:06.640Z,30.00
2019-04-30T07:59:33.606Z,29.90
2019-04-30T08:04:34.239Z,29.80
2019-04-30T08:07:02.935Z,29.80
2019-04-30T08:09:35.522Z,30.10
2019-04-30T08:09:35.580Z,29.90
2019-04-30T08:09:39.116Z,30.00
2019-04-30T08:11:58.977Z,29.50
2019-04-30T08:14:26.527Z,29.50
2019-04-30T08:16:53.785Z,29.50
2019-04-30T08:19:20.584Z,29.50
2019-04-30T08:21:48.835Z,29.30
2019-04-30T08:24:15.644Z,29.30
2019-04-30T08:26:42.424Z,29.30
2019-04-30T08:29:09.706Z,29.10
2019-04-30T08:31:36.680Z,29.20
2019-04-30T08:34:03.560Z,29.10
2019-04-30T08:36:33.006Z,29.10
2019-04-30T08:38:59.708Z,29.40
2019-04-30T08:41:26.720Z,28.90
2019-04-30T08:43:53.975Z,28.90
2019-04-30T08:46:20.718Z,28.80
2019-04-30T08:48:51.677Z,28.80
2019-04-30T08:51:20.853Z,28.90
2019-04-30T08:53:44.976Z,29.20
2019-04-30T08:56:11.984Z,29.10
2019-04-30T08:58:39.237Z,29.20
2019-04-30T09:01:06.028Z,29.10
2019-04-30T09:03:32.837Z,29.20
2019-04-30T09:06:10.376Z,29.30
2019-04-30T09:08:37.259Z,29.20
2019-04-30T09:11:04.035Z,29.20
2019-04-30T09:13:30.984Z,29.10
2019-04-30T09:15:59.372Z,29.10
2019-04-30T09:18:26.480Z,29.30
2019-04-30T09:21:02.007Z,29.20
2019-04-30T09:23:23.161Z,28.90
2019-04-30T09:25:49.941Z,28.90
2019-04-30T09:28:16.860Z,28.90
2019-04-30T09:30:43.647Z,28.70
2019-04-30T09:33:11.205Z,28.90
2019-04-30T09:35:39.522Z,28.90
2019-04-30T09:38:06.538Z,28.80
2019-04-30T09:40:33.328Z,28.70
2019-04-30T09:43:01.574Z,28.80
2019-04-30T09:45:29.469Z,28.60
2019-04-30T09:47:56.418Z,28.60
2019-04-30T09:50:23.685Z,28.70
2019-04-30T09:52:50.913Z,28.60
2019-04-30T09:55:19.364Z,28.70
2019-04-30T09:57:48.694Z,28.70
2019-04-30T10:00:15.750Z,28.70
2019-04-30T10:02:42.979Z,28.80
2019-04-30T10:05:10.954Z,28.90
2019-04-30T10:07:39.363Z,28.80
2019-04-30T10:10:09.510Z,28.90
2019-04-30T10:12:37.051Z,28.90
2019-04-30T10:15:06.538Z,29.00
2019-04-30T10:17:38.598Z,28.90
2019-04-30T10:20:07.164Z,28.70
2019-04-30T10:22:34.186Z,28.80
2019-04-30T10:25:01.393Z,28.80
2019-04-30T10:27:29.365Z,28.80
2019-04-30T10:29:56.332Z,28.70
2019-04-30T10:32:23.379Z,28.90
2019-04-30T10:34:50.279Z,28.80
2019-04-30T10:37:18.944Z,28.80
2019-04-30T10:39:46.171Z,28.90
2019-04-30T10:42:12.927Z,29.40
2019-04-30T10:44:40.927Z,28.80
2019-04-30T10:47:09.344Z,28.70
2019-04-30T10:49:36.328Z,28.80
2019-04-30T10:52:03.287Z,28.70
2019-04-30T10:54:30.372Z,28.70
2019-04-30T10:56:59.167Z,28.80
2019-04-30T10:59:25.882Z,28.80
2019-04-30T11:01:53.140Z,28.70
2019-04-30T11:04:19.981Z,28.60
2019-04-30T11:06:46.772Z,28.60
2019-04-30T11:09:14.224Z,28.50
2019-04-30T11:11:41.229Z,28.50
2019-04-30T11:14:08.203Z,28.60
2019-04-30T11:16:35.368Z,29.30
2019-04-30T11:19:02.301Z,28.90
2019-04-30T11:21:35.132Z,28.90
2019-04-30T11:24:02.889Z,28.70
2019-04-30T11:26:31.962Z,28.70
2019-04-30T11:28:58.394Z,28.70
2019-04-30T11:31:27.685Z,28.50
2019-04-30T11:33:56.395Z,28.30
2019-04-30T11:36:26.667Z,27.60
2019-04-30T11:38:54.045Z,26.70
2019-04-30T11:41:30.110Z,26.70
2019-04-30T11:43:50.432Z,26.50
2019-04-30T11:46:24.220Z,26.20
2019-04-30T11:48:51.569Z,26.00
2019-04-30T11:51:21.427Z,26.10
2019-04-30T11:53:49.067Z,26.50
2019-04-30T11:56:16.370Z,26.10
2019-04-30T11:58:43.413Z,26.30
2019-04-30T12:01:14.163Z,26.30
2019-04-30T12:03:41.014Z,26.50
2019-04-30T12:06:08.591Z,26.40
2019-04-30T12:08:39.166Z,26.20
2019-04-30T12:11:15.412Z,26.40
2019-04-30T12:13:42.546Z,26.70
2019-04-30T12:16:09.473Z,26.20
2019-04-30T12:18:36.353Z,26.60
2019-04-30T12:21:03.646Z,26.40
2019-04-30T12:23:30.507Z,26.40
2019-04-30T12:25:59.461Z,26.60
2019-04-30T12:28:27.412Z,26.40
2019-04-30T12:30:56.190Z,26.50
2019-04-30T12:33:23.089Z,26.80
2019-04-30T12:35:51.367Z,26.80
2019-04-30T12:38:19.246Z,26.40
2019-04-30T12:40:46.437Z,26.70
2019-04-30T12:43:14.146Z,26.50
2019-04-30T12:45:41.098Z,26.70
2019-04-30T12:48:15.838Z,26.30
2019-04-30T12:50:44.614Z,26.00
2019-04-30T12:53:13.421Z,26.10
2019-04-30T12:56:00.305Z,26.30
2019-04-30T12:58:28.406Z,26.20
2019-04-30T13:00:55.565Z,26.30
2019-04-30T13:03:22.690Z,26.50
2019-04-30T13:05:51.047Z,26.60
2019-04-30T13:08:20.752Z,26.80
2019-04-30T13:10:47.889Z,26.80
2019-04-30T13:13:15.409Z,26.90
2019-04-30T13:15:42.851Z,26.70
2019-04-30T13:18:10.002Z,26.00
2019-04-30T13:20:39.004Z,26.40
2019-04-30T13:23:05.778Z,26.50
2019-04-30T13:25:35.495Z,26.10
2019-04-30T13:28:03.330Z,26.00
2019-04-30T13:30:31.489Z,26.10
2019-04-30T13:33:06.818Z,26.30
2019-04-30T13:35:34.291Z,26.60
2019-04-30T13:38:02.992Z,26.50
2019-04-30T13:40:32.074Z,26.30
2019-04-30T13:43:00.722Z,26.40
2019-04-30T13:45:28.785Z,26.30
2019-04-30T13:47:55.921Z,26.10
2019-04-30T13:50:23.140Z,26.30
2019-04-30T13:52:51.357Z,26.70
2019-04-30T13:55:19.197Z,26.30
2019-04-30T13:57:46.176Z,26.10
2019-04-30T14:00:21.905Z,26.30
2019-04-30T14:02:56.519Z,26.70
2019-04-30T14:05:23.690Z,26.60
2019-04-30T14:07:57.266Z,26.90
2019-04-30T14:10:24.536Z,26.90
2019-04-30T14:12:53.257Z,26.90
2019-04-30T14:15:20.479Z,26.90
2019-04-30T14:17:49.387Z,27.10
2019-04-30T14:20:17.933Z,27.20
2019-04-30T14:22:45.085Z,27.20
2019-04-30T14:25:13.378Z,27.40
2019-04-30T14:27:49.449Z,27.20
2019-04-30T14:30:10.221Z,27.40
2019-04-30T14:32:39.501Z,27.40
2019-04-30T14:35:06.282Z,27.40
2019-04-30T14:37:33.328Z,27.50
2019-04-30T14:40:01.241Z,27.90
2019-04-30T14:42:29.403Z,27.70
2019-04-30T14:45:05.682Z,27.50
2019-04-30T14:47:40.993Z,27.60
2019-04-30T14:50:12.581Z,27.70
2019-04-30T14:52:41.706Z,27.70
2019-04-30T14:55:26.068Z,27.60
2019-04-30T14:57:59.409Z,27.60
2019-04-30T15:00:38.767Z,27.50
2019-04-30T15:03:10.791Z,27.70
2019-04-30T15:05:40.563Z,27.70
2019-04-30T15:08:08.479Z,27.90
2019-04-30T15:10:35.808Z,27.80
2019-04-30T15:13:03.159Z,27.80
2019-04-30T15:15:30.270Z,27.70
2019-04-30T15:17:59.201Z,27.70
2019-04-30T15:20:26.709Z,27.80
2019-04-30T15:23:04.562Z,27.70
2019-04-30T15:25:34.000Z,27.90
2019-04-30T15:28:00.306Z,28.00
2019-04-30T15:30:28.919Z,28.00
2019-04-30T15:32:59.353Z,27.90
2019-04-30T15:35:26.587Z,28.10
2019-04-30T15:37:55.763Z,28.10
2019-04-30T15:40:23.126Z,28.00
2019-04-30T15:42:51.932Z,28.00
2019-04-30T15:45:19.431Z,27.90
2019-04-30T15:47:46.424Z,27.90
2019-04-30T15:50:14.010Z,28.00
2019-04-30T15:52:41.227Z,28.00
2019-04-30T15:55:09.191Z,28.00
2019-04-30T15:57:39.302Z,28.10
2019-04-30T16:00:07.334Z,28.20
2019-04-30T16:02:52.779Z,28.30
2019-04-30T16:05:11.505Z,28.30
2019-04-30T16:07:40.771Z,28.40
2019-04-30T16:10:13.509Z,28.30
2019-04-30T16:12:54.949Z,28.20
2019-04-30T16:15:22.451Z,28.30
2019-04-30T16:17:51.350Z,28.30
2019-04-30T16:20:18.498Z,28.30
2019-04-30T16:22:45.772Z,28.30
2019-04-30T16:25:13.930Z,28.30
2019-04-30T16:27:40.998Z,28.10
2019-04-30T16:30:09.539Z,28.30
2019-04-30T16:32:37.632Z,28.20
2019-04-30T16:35:06.225Z,28.20
2019-04-30T16:37:33.774Z,28.30
2019-04-30T16:40:00.855Z,28.40
2019-04-30T16:42:29.069Z,28.30
2019-04-30T16:44:56.435Z,28.20
2019-04-30T16:47:23.368Z,28.20
2019-04-30T16:49:50.159Z,28.20
2019-04-30T16:52:19.038Z,28.30
2019-04-30T16:54:46.022Z,28.30
2019-04-30T16:57:12.942Z,28.30
2019-04-30T16:59:42.785Z,28.30
2019-04-30T17:02:10.407Z,28.30
2019-04-30T17:04:51.660Z,28.40
2019-04-30T17:07:26.421Z,28.50
2019-04-30T17:10:12.306Z,28.50
2019-04-30T17:12:41.201Z,28.50
2019-04-30T17:15:22.418Z,28.60
2019-04-30T17:17:49.834Z,28.60
2019-04-30T17:20:18.535Z,28.70
2019-04-30T17:22:46.213Z,28.60
2019-04-30T17:25:13.442Z,28.60
2019-04-30T17:27:40.620Z,28.60
2019-04-30T17:30:11.078Z,28.60
2019-04-30T17:32:39.479Z,29.20
2019-04-30T17:35:09.056Z,28.60
2019-04-30T17:37:36.486Z,28.70
2019-04-30T17:40:09.238Z,28.60
2019-04-30T17:42:36.304Z,28.70
2019-04-30T17:45:09.278Z,29.00
2019-04-30T17:47:35.952Z,28.80
2019-04-30T17:50:08.923Z,28.80
2019-04-30T17:52:36.629Z,28.90
2019-04-30T17:55:09.704Z,28.90
2019-04-30T17:57:36.718Z,29.00
2019-04-30T18:00:16.901Z,29.10
2019-04-30T18:02:39.261Z,29.10
2019-04-30T18:05:09.142Z,29.20
2019-04-30T18:07:36.481Z,29.20
2019-04-30T18:10:09.012Z,29.30
2019-04-30T18:12:36.423Z,29.30
2019-04-30T18:15:07.666Z,29.30
2019-04-30T18:17:35.639Z,29.30
2019-04-30T18:20:09.019Z,29.50
2019-04-30T18:22:40.115Z,29.30
2019-04-30T18:25:13.067Z,29.40
2019-04-30T18:27:54.214Z,29.40
2019-04-30T18:30:23.135Z,29.50
2019-04-30T18:32:50.490Z,29.50
2019-04-30T18:35:18.649Z,29.50
2019-04-30T18:37:48.563Z,29.60
2019-04-30T18:40:15.956Z,29.60
2019-04-30T18:42:43.033Z,29.60
2019-04-30T18:45:11.477Z,29.60
2019-04-30T18:47:38.848Z,29.60
2019-04-30T18:50:06.377Z,29.70
2019-04-30T18:52:33.634Z,29.70
2019-04-30T18:55:01.508Z,29.60
2019-04-30T18:57:29.886Z,29.70
2019-04-30T18:59:59.118Z,29.70
2019-04-30T19:02:26.262Z,29.80
2019-04-30T19:04:53.827Z,29.70
2019-04-30T19:07:22.558Z,29.70
2019-04-30T19:09:51.475Z,29.80
2019-04-30T19:12:38.964Z,29.80
2019-04-30T19:15:08.123Z,29.80
2019-04-30T19:17:44.170Z,29.80
2019-04-30T19:20:23.022Z,29.80
2019-04-30T19:22:52.326Z,29.80
2019-04-30T19:25:20.648Z,29.80
2019-04-30T19:27:48.327Z,29.80
2019-04-30T19:30:15.989Z,29.80
2019-04-30T19:32:43.142Z,29.90
2019-04-30T19:35:11.169Z,29.80
2019-04-30T19:37:40.371Z,29.80
2019-04-30T19:40:09.028Z,29.80
2019-04-30T19:42:36.796Z,29.80
2019-04-30T19:45:10.088Z,29.80
2019-04-30T19:47:35.494Z,29.70
2019-04-30T19:50:06.635Z,29.70
2019-04-30T19:52:34.720Z,29.60
2019-04-30T19:55:02.211Z,29.60
2019-04-30T19:57:30.268Z,29.60
2019-04-30T19:59:58.738Z,29.70
2019-04-30T20:02:26.464Z,29.70
2019-04-30T20:04:54.652Z,29.70
2019-04-30T20:07:22.825Z,29.80
2019-04-30T20:10:00.305Z,29.80
2019-04-30T20:12:21.316Z,29.90
2019-04-30T20:14:51.406Z,29.70
2019-04-30T20:17:19.556Z,29.80
2019-04-30T20:19:48.931Z,29.70
2019-04-30T20:22:16.385Z,29.70
2019-04-30T20:24:44.443Z,29.70
2019-04-30T20:27:11.902Z,29.70
2019-04-30T20:29:40.936Z,29.70
2019-04-30T20:32:08.829Z,29.70
2019-04-30T20:34:39.095Z,29.80
2019-04-30T20:37:08.535Z,29.80
2019-04-30T20:39:39.502Z,29.70
2019-04-30T20:42:06.927Z,29.70
2019-04-30T20:44:34.041Z,29.70
2019-04-30T20:47:01.512Z,29.60
2019-04-30T20:49:29.142Z,29.70
2019-04-30T20:51:56.623Z,29.70
2019-04-30T20:54:23.875Z,29.70
2019-04-30T20:56:50.948Z,29.80
2019-04-30T20:59:19.051Z,29.70
2019-04-30T21:01:46.400Z,29.70
2019-04-30T21:04:13.502Z,29.80
2019-04-30T21:06:40.489Z,29.80
2019-04-30T21:09:07.698Z,30.00
2019-04-30T21:11:36.084Z,29.90
2019-04-30T21:14:03.883Z,29.90
2019-04-30T21:16:31.133Z,29.90
2019-04-30T21:18:57.981Z,29.90
2019-04-30T21:21:25.099Z,30.00
2019-04-30T21:23:52.206Z,30.00
2019-04-30T21:26:19.671Z,30.00
2019-04-30T21:28:46.674Z,30.10
2019-04-30T21:31:31.002Z,30.70
2019-04-30T21:34:00.624Z,30.00
2019-04-30T21:36:29.414Z,30.00
2019-04-30T21:38:58.940Z,30.00
2019-04-30T21:41:26.980Z,30.00
2019-04-30T21:43:54.130Z,30.00
2019-04-30T21:46:21.703Z,30.10
2019-04-30T21:48:48.870Z,30.00
2019-04-30T21:51:16.405Z,30.00
2019-04-30T21:53:45.692Z,30.00
2019-04-30T21:56:13.061Z,30.00
2019-04-30T21:58:42.589Z,30.10
2019-04-30T22:01:13.489Z,30.00
2019-04-30T22:03:44.451Z,30.00
2019-04-30T22:06:12.254Z,30.00
2019-04-30T22:08:40.102Z,30.00
2019-04-30T22:11:09.586Z,30.10
2019-04-30T22:13:36.171Z,30.00
2019-04-30T22:16:03.703Z,30.00
2019-04-30T22:18:30.728Z,30.00
2019-04-30T22:20:58.621Z,30.00
2019-04-30T22:23:26.281Z,30.10
2019-04-30T22:25:53.643Z,30.10
2019-04-30T22:28:20.409Z,30.10
2019-04-30T22:30:48.375Z,30.10
2019-04-30T22:33:16.939Z,30.20
2019-04-30T22:35:45.832Z,30.10
2019-04-30T22:38:30.188Z,30.60
2019-04-30T22:40:58.833Z,30.30
2019-04-30T22:43:26.001Z,31.20
2019-04-30T22:45:55.615Z,30.50
2019-04-30T22:48:22.768Z,30.50
2019-04-30T22:50:49.701Z,30.50
2019-04-30T22:53:16.964Z,30.70
2019-04-30T22:55:43.922Z,30.70
2019-04-30T22:58:11.056Z,30.70
2019-04-30T23:00:40.321Z,30.60
2019-04-30T23:03:09.143Z,30.60
2019-04-30T23:05:37.264Z,30.60
2019-04-30T23:08:04.712Z,30.70
2019-04-30T23:10:31.933Z,30.60
2019-04-30T23:12:59.870Z,30.70
2019-04-30T23:15:26.783Z,30.70
2019-04-30T23:17:54.430Z,30.70
2019-04-30T23:20:21.472Z,30.90
2019-04-30T23:22:48.957Z,31.10
2019-04-30T23:25:15.853Z,30.90
2019-04-30T23:27:43.433Z,31.00
2019-04-30T23:30:10.805Z,31.00
2019-04-30T23:32:37.925Z,30.90
2019-04-30T23:35:04.978Z,30.50
2019-04-30T23:37:32.164Z,30.90
2019-04-30T23:40:19.473Z,31.10
2019-04-30T23:42:46.520Z,31.20
2019-04-30T23:45:13.646Z,31.10
2019-04-30T23:47:40.512Z,31.40
2019-04-30T23:50:07.743Z,31.50
2019-04-30T23:52:35.527Z,31.70
2019-04-30T23:55:02.497Z,31.90
2019-04-30T23:57:29.769Z,31.80
2019-04-30T23:59:56.968Z,31.80
